createdAt,value
2019-06-07T00:00:31.933Z,98.30
2019-06-07T00:02:41.681Z,98.40
2019-06-07T00:05:12.711Z,98.60
2019-06-07T00:07:40.701Z,98.50
2019-06-07T00:10:15.455Z,98.70
2019-06-07T00:12:39.951Z,98.70
2019-06-07T00:15:11.625Z,98.80
2019-06-07T00:17:39.170Z,98.70
2019-06-07T00:20:13.142Z,98.70
2019-06-07T00:22:39.228Z,98.60
2019-06-07T00:25:12.096Z,98.60
2019-06-07T00:27:38.788Z,98.70
2019-06-07T00:30:32.567Z,98.70
2019-06-07T00:32:40.300Z,98.70
2019-06-07T00:35:09.262Z,98.70
2019-06-07T00:37:38.116Z,98.70
2019-06-07T00:40:17.628Z,98.90
2019-06-07T00:42:38.052Z,99.10
2019-06-07T00:45:07.314Z,99.20
2019-06-07T00:47:36.005Z,99.30
2019-06-07T00:50:06.776Z,99.10
2019-06-07T00:53:13.925Z,99.30
2019-06-07T00:55:07.448Z,99.20
2019-06-07T00:57:36.203Z,99.10
2019-06-07T01:00:07.492Z,99.10
2019-06-07T01:02:36.270Z,99.10
2019-06-07T01:05:08.854Z,99.20
2019-06-07T01:07:40.758Z,99.10
2019-06-07T01:10:13.852Z,99.20
2019-06-07T01:12:42.802Z,99.40
2019-06-07T01:15:15.784Z,99.40
2019-06-07T01:18:32.599Z,99.30
2019-06-07T01:20:14.144Z,99.20
2019-06-07T01:22:43.094Z,99.30
2019-06-07T01:25:11.833Z,99.40
2019-06-07T01:27:40.607Z,99.50
2019-06-07T01:30:11.132Z,99.40
2019-06-07T01:32:39.833Z,99.40
2019-06-07T01:35:09.793Z,99.50
2019-06-07T01:37:38.546Z,99.60
2019-06-07T01:40:11.654Z,99.40
2019-06-07T01:42:40.357Z,99.50
2019-06-07T01:45:11.505Z,99.50
2019-06-07T01:47:40.250Z,99.50
2019-06-07T01:50:10.297Z,99.60
2019-06-07T01:52:39.079Z,99.60
2019-06-07T01:55:09.229Z,99.50
2019-06-07T01:57:47.741Z,99.60
2019-06-07T02:00:09.902Z,99.60
2019-06-07T02:02:38.769Z,99.60
2019-06-07T02:05:07.917Z,99.60
2019-06-07T02:07:37.003Z,99.70
2019-06-07T02:10:09.294Z,99.70
2019-06-07T02:12:43.246Z,99.70
2019-06-07T02:15:09.443Z,99.80
2019-06-07T02:17:38.643Z,99.90
2019-06-07T02:20:12.605Z,99.90
2019-06-07T02:22:41.216Z,99.90
2019-06-07T02:25:37.387Z,99.90
2019-06-07T02:27:40.278Z,99.90
2019-06-07T02:30:37.022Z,99.90
2019-06-07T02:32:40.322Z,99.90
2019-06-07T02:35:11.547Z,99.90
2019-06-07T02:37:40.156Z,99.90
2019-06-07T02:40:09.416Z,99.90
2019-06-07T02:42:42.231Z,99.90
2019-06-07T02:45:10.757Z,99.90
2019-06-07T02:47:40.344Z,99.90
2019-06-07T02:50:13.800Z,99.90
2019-06-07T02:52:42.637Z,99.90
2019-06-07T02:55:12.229Z,99.90
2019-06-07T02:57:42.584Z,99.90
2019-06-07T03:00:52.761Z,99.90
2019-06-07T03:02:44.085Z,99.90
2019-06-07T03:05:12.899Z,99.90
2019-06-07T03:07:45.179Z,99.90
2019-06-07T03:10:13.117Z,99.90
2019-06-07T03:12:45.241Z,99.90
2019-06-07T03:15:32.248Z,99.90
2019-06-07T03:18:01.474Z,99.90
2019-06-07T03:20:32.809Z,99.90
2019-06-07T03:23:01.897Z,99.90
2019-06-07T03:25:36.960Z,99.90
2019-06-07T03:28:04.386Z,99.90
2019-06-07T03:30:48.798Z,99.90
2019-06-07T03:33:03.284Z,99.90
2019-06-07T03:35:34.632Z,99.90
2019-06-07T03:38:02.635Z,99.90
2019-06-07T03:40:32.305Z,99.90
2019-06-07T03:43:02.013Z,99.90
2019-06-07T03:45:32.357Z,99.90
2019-06-07T03:48:00.929Z,99.90
2019-06-07T03:50:33.443Z,99.90
2019-06-07T03:52:59.903Z,99.90
2019-06-07T03:55:30.396Z,99.90
2019-06-07T03:58:30.911Z,99.90
2019-06-07T04:00:32.495Z,99.90
2019-06-07T04:02:59.342Z,99.90
2019-06-07T04:05:28.755Z,99.90
2019-06-07T04:07:58.497Z,99.80
2019-06-07T04:10:44.900Z,99.90
2019-06-07T04:12:57.368Z,99.70
2019-06-07T04:15:26.002Z,99.70
2019-06-07T04:18:01.906Z,99.60
2019-06-07T04:20:25.077Z,99.60
2019-06-07T04:22:53.695Z,99.40
2019-06-07T04:25:22.470Z,99.40
2019-06-07T04:27:51.441Z,99.40
2019-06-07T04:30:41.504Z,99.10
2019-06-07T04:33:10.167Z,99.30
2019-06-07T04:35:43.077Z,99.00
2019-06-07T04:38:12.719Z,99.00
2019-06-07T04:40:42.917Z,98.60
2019-06-07T04:43:12.942Z,98.40
2019-06-07T04:45:50.337Z,98.10
2019-06-07T04:48:12.222Z,97.90
2019-06-07T04:50:43.692Z,97.90
2019-06-07T04:53:11.409Z,97.50
2019-06-07T04:55:41.749Z,97.10
2019-06-07T04:58:10.398Z,97.10
2019-06-07T05:00:52.395Z,96.90
2019-06-07T05:03:09.553Z,96.40
2019-06-07T05:05:41.381Z,96.40
2019-06-07T05:08:27.080Z,96.50
2019-06-07T05:10:41.303Z,96.00
2019-06-07T05:13:09.134Z,95.90
2019-06-07T05:15:40.209Z,95.60
2019-06-07T05:18:08.112Z,95.90
2019-06-07T05:20:38.543Z,95.10
2019-06-07T05:23:07.193Z,94.90
2019-06-07T05:25:38.462Z,94.80
2019-06-07T05:28:06.360Z,94.20
2019-06-07T05:33:12.056Z,94.10
2019-06-07T05:35:43.235Z,93.90
2019-06-07T05:38:11.220Z,93.20
2019-06-07T05:40:43.945Z,92.80
2019-06-07T05:43:25.801Z,93.00
2019-06-07T05:45:54.588Z,92.90
2019-06-07T05:48:23.306Z,92.80
2019-06-07T05:50:56.840Z,92.60
2019-06-07T05:53:22.544Z,92.40
2019-06-07T05:55:51.165Z,92.00
2019-06-07T05:58:19.913Z,91.80
2019-06-07T06:00:48.805Z,92.20
2019-06-07T06:03:17.494Z,91.30
2019-06-07T06:05:54.460Z,91.60
2019-06-07T06:08:16.494Z,91.50
2019-06-07T06:10:48.513Z,90.70
2019-06-07T06:13:15.594Z,90.10
2019-06-07T06:15:56.302Z,90.30
2019-06-07T06:18:14.739Z,90.20
2019-06-07T06:21:04.696Z,90.40
2019-06-07T06:23:13.843Z,90.20
2019-06-07T06:25:50.161Z,89.60
2019-06-07T06:28:13.308Z,88.90
2019-06-07T06:30:46.037Z,88.70
2019-06-07T06:33:30.458Z,87.60
2019-06-07T06:35:48.402Z,86.40
2019-06-07T06:38:14.463Z,84.40
2019-06-07T06:40:48.425Z,84.30
2019-06-07T06:43:13.787Z,87.50
2019-06-07T06:45:42.950Z,85.90
2019-06-07T06:48:12.916Z,85.70
2019-06-07T06:50:43.602Z,82.30
2019-06-07T06:53:11.766Z,79.70
2019-06-07T06:55:41.497Z,80.40
2019-06-07T06:58:10.241Z,81.40
2019-06-07T07:01:05.319Z,81.40
2019-06-07T07:03:57.316Z,79.30
2019-06-07T07:05:54.959Z,78.90
2019-06-07T07:08:26.073Z,77.30
2019-06-07T07:10:55.243Z,80.90
2019-06-07T07:13:24.198Z,78.80
2019-06-07T07:15:58.064Z,78.60
2019-06-07T07:18:23.308Z,77.70
2019-06-07T07:20:56.896Z,75.70
2019-06-07T07:23:22.376Z,73.60
2019-06-07T07:25:58.078Z,75.10
2019-06-07T07:28:21.410Z,74.50
2019-06-07T07:30:55.375Z,73.80
2019-06-07T07:33:23.753Z,73.30
2019-06-07T07:36:15.287Z,74.70
2019-06-07T07:38:23.898Z,73.70
2019-06-07T07:41:06.097Z,73.60
2019-06-07T07:43:23.102Z,71.90
2019-06-07T07:45:59.182Z,73.30
2019-06-07T07:48:22.065Z,70.20
2019-06-07T07:50:54.566Z,69.50
2019-06-07T07:53:21.474Z,69.50
2019-06-07T07:55:53.822Z,67.60
2019-06-07T07:58:20.752Z,67.10
2019-06-07T08:00:54.908Z,68.50
2019-06-07T08:03:19.925Z,70.10
2019-06-07T08:05:49.190Z,71.30
2019-06-07T08:08:19.170Z,72.60
2019-06-07T08:10:51.466Z,70.60
2019-06-07T08:13:25.881Z,67.60
2019-06-07T08:15:53.308Z,66.30
2019-06-07T08:18:18.861Z,67.70
2019-06-07T08:21:08.748Z,65.50
2019-06-07T08:23:17.964Z,68.40
2019-06-07T08:25:46.802Z,66.20
2019-06-07T08:28:15.572Z,69.20
2019-06-07T08:30:51.236Z,70.20
2019-06-07T08:33:25.839Z,69.00
2019-06-07T08:38:29.794Z,64.90
2019-06-07T08:40:53.634Z,65.20
2019-06-07T08:43:21.107Z,64.10
2019-06-07T08:45:51.257Z,65.90
2019-06-07T08:48:28.064Z,69.00
2019-06-07T08:50:52.957Z,66.80
2019-06-07T08:53:20.252Z,66.80
2019-06-07T08:55:48.917Z,68.30
2019-06-07T08:58:17.587Z,68.20
2019-06-07T09:00:47.662Z,66.50
2019-06-07T09:03:16.549Z,66.60
2019-06-07T09:05:45.262Z,65.30
2019-06-07T09:08:29.247Z,64.90
2019-06-07T09:10:45.133Z,66.40
2019-06-07T09:13:13.808Z,67.10
2019-06-07T09:15:42.495Z,66.20
2019-06-07T09:20:45.230Z,63.90
2019-06-07T09:23:17.302Z,60.30
2019-06-07T09:25:56.685Z,59.80
2019-06-07T09:28:23.151Z,59.10
2019-06-07T09:30:51.756Z,60.50
2019-06-07T09:33:20.497Z,60.20
2019-06-07T09:35:53.406Z,58.20
2019-06-07T09:38:26.687Z,59.60
2019-06-07T09:40:53.602Z,58.20
2019-06-07T09:45:52.625Z,59.70
2019-06-07T09:49:09.292Z,55.60
2019-06-07T09:50:52.951Z,53.70
2019-06-07T09:53:23.307Z,53.90
2019-06-07T09:55:51.983Z,52.70
2019-06-07T10:00:50.996Z,51.80
2019-06-07T10:03:22.400Z,51.80
2019-06-07T10:05:50.035Z,52.20
2019-06-07T10:09:26.204Z,50.00
2019-06-07T10:10:49.010Z,52.50
2019-06-07T10:13:17.770Z,50.90
2019-06-07T10:15:46.576Z,50.70
2019-06-07T10:18:15.315Z,50.10
2019-06-07T10:20:44.139Z,49.80
2019-06-07T10:23:12.788Z,48.10
2019-06-07T10:25:41.536Z,47.60
2019-06-07T10:28:10.501Z,48.20
2019-06-07T10:30:39.438Z,46.20
2019-06-07T10:33:08.608Z,50.20
2019-06-07T10:35:37.586Z,48.10
2019-06-07T10:38:06.733Z,47.50
2019-06-07T10:40:35.376Z,46.20
2019-06-07T10:43:05.048Z,48.00
2019-06-07T10:45:34.513Z,49.80
2019-06-07T10:48:03.586Z,47.90
2019-06-07T10:50:32.437Z,46.40
2019-06-07T10:53:02.283Z,46.80
2019-06-07T10:55:31.052Z,46.80
2019-06-07T10:57:59.677Z,47.30
2019-06-07T11:00:29.631Z,50.30
2019-06-07T11:02:58.557Z,51.70
2019-06-07T11:05:27.307Z,48.60
2019-06-07T11:07:55.982Z,45.70
2019-06-07T11:10:24.751Z,44.10
2019-06-07T11:12:53.382Z,45.50
2019-06-07T11:15:22.122Z,44.80
2019-06-07T11:17:50.884Z,48.20
2019-06-07T11:20:19.908Z,44.40
2019-06-07T11:22:48.522Z,44.70
2019-06-07T11:25:18.748Z,42.90
2019-06-07T11:27:47.333Z,42.40
2019-06-07T11:30:16.331Z,43.10
2019-06-07T11:32:44.946Z,41.40
2019-06-07T11:35:15.603Z,40.40
2019-06-07T11:37:44.297Z,40.10
2019-06-07T11:40:31.981Z,41.40
2019-06-07T11:42:44.177Z,41.70
2019-06-07T11:45:15.228Z,41.40
2019-06-07T11:47:43.543Z,40.50
2019-06-07T11:50:13.728Z,41.30
2019-06-07T11:52:46.103Z,42.40
2019-06-07T11:55:15.732Z,42.30
2019-06-07T11:57:44.504Z,42.30
2019-06-07T12:00:16.351Z,44.30
2019-06-07T12:02:49.791Z,43.20
2019-06-07T12:05:20.344Z,41.40
2019-06-07T12:07:49.129Z,40.70
2019-06-07T12:10:22.253Z,42.60
2019-06-07T12:12:48.469Z,41.20
2019-06-07T12:15:19.293Z,41.70
2019-06-07T12:17:48.102Z,40.20
2019-06-07T12:20:19.546Z,40.80
2019-06-07T12:23:00.527Z,40.50
2019-06-07T12:25:29.228Z,42.80
2019-06-07T12:27:57.986Z,43.30
2019-06-07T12:30:28.096Z,44.50
2019-06-07T12:32:56.944Z,44.20
2019-06-07T12:35:25.656Z,41.40
2019-06-07T12:37:54.462Z,42.10
2019-06-07T12:40:30.154Z,38.90
2019-06-07T12:42:53.597Z,40.30
2019-06-07T12:45:42.830Z,42.60
2019-06-07T12:47:52.838Z,43.20
2019-06-07T12:50:23.910Z,41.40
2019-06-07T12:52:53.301Z,40.90
2019-06-07T12:55:22.777Z,40.50
2019-06-07T12:57:52.376Z,40.80
2019-06-07T13:00:22.483Z,40.60
2019-06-07T13:02:51.380Z,40.80
2019-06-07T13:05:21.622Z,40.20
2019-06-07T13:07:50.797Z,40.00
2019-06-07T13:10:22.149Z,39.80
2019-06-07T13:12:50.539Z,40.30
2019-06-07T13:15:21.860Z,40.20
2019-06-07T13:17:49.614Z,40.00
2019-06-07T13:20:20.296Z,39.70
2019-06-07T13:22:50.773Z,38.70
2019-06-07T13:25:21.283Z,39.30
2019-06-07T13:27:51.343Z,40.00
2019-06-07T13:30:21.061Z,39.20
2019-06-07T13:32:49.890Z,36.70
2019-06-07T13:35:20.101Z,37.10
2019-06-07T13:37:49.082Z,39.10
2019-06-07T13:40:19.662Z,39.90
2019-06-07T13:42:48.297Z,40.40
2019-06-07T13:45:19.909Z,39.40
2019-06-07T13:47:48.902Z,38.70
2019-06-07T13:50:19.488Z,38.00
2019-06-07T13:52:48.581Z,38.20
2019-06-07T13:55:18.037Z,40.50
2019-06-07T13:57:46.664Z,39.50
2019-06-07T14:00:18.884Z,39.40
2019-06-07T14:02:48.150Z,38.50
2019-06-07T14:05:16.899Z,37.10
2019-06-07T14:07:45.710Z,37.70
2019-06-07T14:10:14.408Z,40.80
2019-06-07T14:12:43.158Z,42.10
2019-06-07T14:15:12.183Z,41.90
2019-06-07T14:17:40.884Z,42.70
2019-06-07T14:20:10.474Z,41.40
2019-06-07T14:22:39.619Z,41.70
2019-06-07T14:25:09.524Z,40.70
2019-06-07T14:27:38.366Z,40.40
2019-06-07T14:30:09.085Z,39.50
2019-06-07T14:32:37.940Z,40.50
2019-06-07T14:35:08.724Z,40.80
2019-06-07T14:37:37.488Z,41.50
2019-06-07T14:40:08.923Z,39.90
2019-06-07T14:42:37.695Z,39.80
2019-06-07T14:45:07.540Z,40.20
2019-06-07T14:47:44.599Z,40.50
2019-06-07T14:50:14.146Z,40.50
2019-06-07T14:52:42.780Z,44.20
2019-06-07T14:55:12.000Z,42.40
2019-06-07T14:57:40.778Z,42.00
2019-06-07T15:00:12.472Z,42.80
2019-06-07T15:02:41.272Z,41.30
2019-06-07T15:05:11.045Z,40.80
2019-06-07T15:07:40.585Z,42.40
2019-06-07T15:10:10.100Z,40.50
2019-06-07T15:12:40.022Z,41.40
2019-06-07T15:15:09.933Z,40.70
2019-06-07T15:17:39.217Z,42.00
2019-06-07T15:20:08.514Z,41.10
2019-06-07T15:22:38.739Z,39.80
2019-06-07T15:25:08.404Z,39.80
2019-06-07T15:27:37.649Z,40.20
2019-06-07T15:30:10.397Z,41.40
2019-06-07T15:32:39.618Z,41.80
2019-06-07T15:35:09.285Z,42.00
2019-06-07T15:37:39.292Z,40.70
2019-06-07T15:40:10.116Z,41.30
2019-06-07T15:42:49.982Z,41.10
2019-06-07T15:45:09.872Z,40.00
2019-06-07T15:47:40.376Z,40.40
2019-06-07T15:50:09.992Z,40.80
2019-06-07T15:52:40.544Z,41.20
2019-06-07T15:55:10.551Z,43.70
2019-06-07T15:57:39.801Z,43.90
2019-06-07T16:00:14.439Z,43.40
2019-06-07T16:02:43.139Z,46.40
2019-06-07T16:05:11.981Z,45.50
2019-06-07T16:07:40.782Z,45.90
2019-06-07T16:10:10.602Z,44.60
2019-06-07T16:12:39.350Z,45.00
2019-06-07T16:15:09.357Z,46.80
2019-06-07T16:17:39.247Z,47.70
2019-06-07T16:20:08.774Z,47.00
2019-06-07T16:22:37.681Z,47.40
2019-06-07T16:25:08.217Z,48.20
2019-06-07T16:27:37.338Z,48.50
2019-06-07T16:30:12.093Z,49.00
2019-06-07T16:32:41.785Z,48.40
2019-06-07T16:35:12.484Z,49.20
2019-06-07T16:37:42.786Z,48.90
2019-06-07T16:40:14.079Z,48.80
2019-06-07T16:42:43.024Z,49.30
2019-06-07T16:45:15.170Z,48.80
2019-06-07T16:47:47.155Z,49.20
2019-06-07T16:50:14.609Z,50.80
2019-06-07T16:52:44.226Z,51.00
2019-06-07T16:55:13.764Z,51.50
2019-06-07T16:57:42.946Z,52.20
2019-06-07T17:00:12.818Z,52.50
2019-06-07T17:02:42.235Z,52.60
2019-06-07T17:05:11.562Z,52.50
2019-06-07T17:07:40.526Z,53.20
2019-06-07T17:10:12.671Z,52.60
2019-06-07T17:12:42.680Z,52.80
2019-06-07T17:15:13.346Z,52.50
2019-06-07T17:17:42.967Z,52.70
2019-06-07T17:20:13.553Z,53.10
2019-06-07T17:22:43.904Z,53.70
2019-06-07T17:25:13.018Z,53.60
2019-06-07T17:27:42.082Z,54.60
2019-06-07T17:30:12.017Z,54.30
2019-06-07T17:32:50.810Z,55.00
2019-06-07T17:35:11.428Z,55.30
2019-06-07T17:37:41.785Z,55.50
2019-06-07T17:40:10.882Z,55.50
2019-06-07T17:42:40.597Z,54.80
2019-06-07T17:45:10.306Z,54.00
2019-06-07T17:47:39.120Z,53.20
2019-06-07T17:50:09.295Z,52.80
2019-06-07T17:52:38.013Z,54.10
2019-06-07T17:55:08.268Z,54.00
2019-06-07T17:57:36.926Z,54.20
2019-06-07T18:00:27.676Z,55.00
2019-06-07T18:02:38.301Z,56.70
2019-06-07T18:05:07.869Z,60.80
2019-06-07T18:07:36.853Z,68.70
2019-06-07T18:10:07.647Z,78.30
2019-06-07T18:12:36.339Z,87.30
2019-06-07T18:15:10.748Z,90.10
2019-06-07T18:17:39.486Z,90.50
2019-06-07T18:20:10.587Z,91.20
2019-06-07T18:22:39.256Z,90.60
2019-06-07T18:25:08.599Z,90.30
2019-06-07T18:27:37.205Z,91.20
2019-06-07T18:30:11.542Z,90.80
2019-06-07T18:32:39.519Z,90.80
2019-06-07T18:35:08.282Z,91.20
2019-06-07T18:37:36.985Z,90.70
2019-06-07T18:40:08.470Z,91.50
2019-06-07T18:42:37.151Z,91.20
2019-06-07T18:45:09.728Z,90.50
2019-06-07T18:47:38.777Z,91.00
2019-06-07T18:50:08.299Z,91.30
2019-06-07T18:52:38.780Z,91.00
2019-06-07T18:55:09.424Z,91.50
2019-06-07T18:57:38.136Z,91.60
2019-06-07T19:00:09.858Z,91.70
2019-06-07T19:02:39.250Z,92.10
2019-06-07T19:05:09.483Z,91.30
2019-06-07T19:07:38.289Z,91.70
2019-06-07T19:10:13.994Z,92.20
2019-06-07T19:12:41.914Z,92.40
2019-06-07T19:15:13.331Z,92.50
2019-06-07T19:17:42.080Z,92.60
2019-06-07T19:20:11.854Z,92.40
2019-06-07T19:22:40.620Z,92.60
2019-06-07T19:25:11.364Z,92.70
2019-06-07T19:28:10.661Z,92.70
2019-06-07T19:30:39.363Z,93.10
2019-06-07T19:33:08.126Z,92.80
2019-06-07T19:35:38.964Z,92.90
2019-06-07T19:38:07.730Z,92.90
2019-06-07T19:40:36.560Z,92.60
2019-06-07T19:43:11.571Z,92.20
2019-06-07T19:45:40.437Z,92.10
2019-06-07T19:48:12.106Z,91.90
2019-06-07T19:50:40.743Z,92.20
2019-06-07T19:53:09.654Z,91.80
2019-06-07T19:55:38.401Z,91.70
2019-06-07T19:58:07.172Z,91.20
2019-06-07T20:00:35.929Z,92.30
2019-06-07T20:03:04.721Z,92.50
2019-06-07T20:05:34.111Z,92.60
2019-06-07T20:08:03.072Z,92.80
2019-06-07T20:10:31.858Z,92.80
2019-06-07T20:13:00.924Z,92.50
2019-06-07T20:15:29.866Z,92.60
2019-06-07T20:17:59.228Z,92.60
2019-06-07T20:20:30.090Z,92.80
2019-06-07T20:23:01.001Z,92.90
2019-06-07T20:25:29.854Z,93.10
2019-06-07T20:27:59.640Z,93.40
2019-06-07T20:30:28.532Z,93.10
2019-06-07T20:32:57.676Z,93.00
2019-06-07T20:35:26.478Z,92.50
2019-06-07T20:37:55.290Z,93.30
2019-06-07T20:40:24.957Z,93.00
2019-06-07T20:42:53.714Z,92.90
2019-06-07T20:45:32.990Z,92.60
2019-06-07T20:47:52.804Z,93.00
2019-06-07T20:50:21.510Z,91.70
2019-06-07T20:53:01.133Z,92.00
2019-06-07T20:55:29.712Z,91.70
2019-06-07T20:57:59.100Z,92.10
2019-06-07T21:00:27.986Z,91.50
2019-06-07T21:02:56.701Z,91.30
2019-06-07T21:05:25.383Z,91.40
2019-06-07T21:07:54.167Z,91.20
2019-06-07T21:10:22.856Z,90.70
2019-06-07T21:12:51.495Z,90.60
2019-06-07T21:15:20.286Z,90.60
2019-06-07T21:17:49.033Z,91.00
2019-06-07T21:20:17.713Z,90.90
2019-06-07T21:22:46.571Z,90.40
2019-06-07T21:25:15.172Z,90.10
2019-06-07T21:27:43.835Z,90.20
2019-06-07T21:30:12.819Z,90.40
2019-06-07T21:32:41.517Z,90.20
2019-06-07T21:35:12.175Z,90.70
2019-06-07T21:37:41.234Z,90.10
2019-06-07T21:40:10.479Z,90.10
2019-06-07T21:42:39.565Z,89.10
2019-06-07T21:45:20.311Z,89.20
2019-06-07T21:47:48.966Z,88.60
2019-06-07T21:50:17.969Z,87.40
2019-06-07T21:52:46.615Z,85.70
2019-06-07T21:55:15.975Z,85.80
2019-06-07T21:57:44.650Z,85.70
2019-06-07T22:00:17.675Z,84.40
2019-06-07T22:02:46.590Z,85.10
2019-06-07T22:05:15.456Z,85.10
2019-06-07T22:07:44.197Z,84.40
2019-06-07T22:10:14.544Z,85.00
2019-06-07T22:12:43.163Z,85.20
2019-06-07T22:15:29.062Z,86.00
2019-06-07T22:17:42.643Z,84.60
2019-06-07T22:20:12.726Z,86.40
2019-06-07T22:22:41.599Z,87.50
2019-06-07T22:25:11.074Z,87.60
2019-06-07T22:27:39.982Z,88.00
2019-06-07T22:30:10.469Z,87.70
2019-06-07T22:32:39.306Z,88.00
2019-06-07T22:35:08.948Z,86.70
2019-06-07T22:37:38.077Z,87.30
2019-06-07T22:40:08.573Z,88.10
2019-06-07T22:42:38.000Z,87.80
2019-06-07T22:45:08.226Z,88.50
2019-06-07T22:47:49.049Z,88.20
2019-06-07T22:50:19.427Z,88.10
2019-06-07T22:52:50.305Z,88.10
2019-06-07T22:55:19.069Z,89.40
2019-06-07T22:58:06.085Z,88.60
2019-06-07T23:00:36.702Z,89.30
2019-06-07T23:03:05.703Z,90.30
2019-06-07T23:05:35.213Z,89.10
2019-06-07T23:08:04.257Z,90.00
2019-06-07T23:10:32.942Z,90.60
2019-06-07T23:13:01.661Z,90.50
2019-06-07T23:15:30.652Z,90.60
2019-06-07T23:18:02.325Z,90.80
2019-06-07T23:20:31.008Z,90.20
2019-06-07T23:22:59.637Z,89.90
2019-06-07T23:25:28.352Z,90.60
2019-06-07T23:27:57.089Z,89.60
2019-06-07T23:30:25.893Z,89.80
2019-06-07T23:32:54.548Z,88.80
2019-06-07T23:35:23.160Z,88.80
2019-06-07T23:37:51.845Z,90.00
2019-06-07T23:40:21.565Z,90.00
2019-06-07T23:42:50.365Z,87.80
2019-06-07T23:45:19.546Z,88.60
2019-06-07T23:47:48.331Z,88.10
2019-06-07T23:50:17.768Z,89.10
2019-06-07T23:52:46.410Z,88.90
2019-06-07T23:55:15.875Z,90.10
2019-06-07T23:57:44.737Z,88.70
